Main page
METAR-TAF:

METAR-TAF

Airports :

Craig–Moffat Airport

Craig, Colorado, United States

latitude: 40-29-36N, longitude: 107-31-25W, elevation: 6193 ft

Current weather observation

The report was made 59 minutes ago, at 10:53 UTC
Calm wind
Temperature 46°F
Humidity 71%
Pressure 29.85 in. Hg
Visibility: 10 miles
Broken clouds at a height of 10000 ft

METAR: KCAG 251053Z AUTO 00000KT 10SM BKN100 08/03 A2985 RMK AO2 SLP056 T00830033

Time: 05:52 (11:52 UTC)


TAF: missing

Weather observations and forecasts of more than 4000 airports (METAR and TAF reports).

The available stations are represented by yellow and red dots on the map.

Hover mouse over dot to see the name of the station.

Then click to see weather observations and forecasts.

To change the map : click on the green buttons with a black cross to zoom in, on the green button with a dash to zoom out, or on the green arrows for adjacent maps.


METAR-TAF: